Home   Weather   Ukraine   Horlivka   Past weeks
Flag for Ukraine

Past Weather in Horlivka, Ukraine — Yesterday and Last 2 Weeks

Currently: 77 °F. Sunny. (Weather station: Belgorod, Ukraine). See more current weather

Past Weather in Horlivka — Graph

°F

Horlivka Temperature Yesterday

Maximum temperature yesterday: 75 °F (at 3:00 pm)
Minimum temperature yesterday: 54 °F (at 4:00 am)
Average temperature yesterday: 65 °F

High & Low Weather Summary for the Past Weeks

 TemperatureHumidityPressure
High88 °F (Jun 10, 2:00 pm)100% (Jun 8, 11:00 pm)30.12 "Hg (Jun 8, 11:00 pm)
Low54 °F (Jun 14, 3:00 am)22% (Jun 10, 4:30 pm)29.71 "Hg (Jun 16, 3:30 pm)
Average70 °F68%29.89 "Hg
* Reported Jun 7 3:00 pm — Jun 22 3:30 pm, Horlivka. Weather by CustomWeather, © 2024

Note: Actual official high and low records may vary slightly from our data, if they occured in-between our weather recording intervals... More about our weather records

Horlivka Weather History for the Previous 24 Hours

Scroll right to see more
 ConditionsComfort  
Time TempWeatherWind HumidityBarometerVisibility
3:30 pm
Sat, Jun 22
79 °FSunny.13 mph42%29.86 "Hg10 mi
3:00 pm77 °FSunny.10 mph44%29.86 "Hg10 mi
2:30 pm77 °FSunny.13 mph44%29.86 "Hg10 mi
2:00 pm77 °FSunny.13 mph42%29.86 "Hg10 mi
1:30 pm75 °FSunny.13 mph44%29.89 "Hg10 mi
1:00 pm77 °FPassing clouds.8 mph42%29.89 "HgN/A
12:30 pm75 °FPassing clouds.8 mph47%29.89 "HgN/A
12:00 pm75 °FPassing clouds.10 mph47%29.89 "HgN/A
11:30 am73 °FPassing clouds.8 mph47%29.89 "HgN/A
11:00 am73 °FPassing clouds.8 mph47%29.89 "HgN/A
10:30 am73 °FPassing clouds.8 mph44%29.89 "HgN/A
10:00 am72 °FPassing clouds.6 mph50%29.89 "HgN/A
9:30 am72 °FPassing clouds.6 mph50%29.92 "HgN/A
9:00 am70 °FSunny.8 mph57%29.92 "Hg10 mi
8:30 am68 °FSunny.6 mph60%29.89 "Hg10 mi
8:00 am66 °FSunny.6 mph64%29.89 "Hg10 mi
7:30 am64 °FSunny.8 mph68%29.92 "Hg10 mi
7:00 am63 °FSunny.10 mph68%29.92 "Hg10 mi
6:30 am61 °FSunny.10 mph77%29.89 "Hg10 mi
6:00 am59 °FSunny.8 mph77%29.92 "Hg10 mi
5:30 am59 °FSunny.8 mph77%29.92 "Hg10 mi
5:00 am57 °FSunny.8 mph82%29.92 "Hg10 mi
4:30 am55 °FSunny.8 mph88%29.92 "Hg10 mi
4:00 am57 °FClear.8 mph82%29.92 "Hg10 mi
3:30 am57 °FClear.6 mph82%29.89 "Hg10 mi
3:00 am57 °FClear.6 mph82%29.89 "Hg10 mi
2:30 am57 °FClear.8 mph82%29.89 "Hg10 mi
2:00 am59 °FClear.6 mph77%29.89 "Hg10 mi
1:30 am61 °FClear.8 mph72%29.89 "Hg10 mi
1:00 am61 °FClear.10 mph72%29.89 "Hg10 mi
12:00 am63 °FClear.10 mph73%29.89 "Hg10 mi
11:00 pm
Fri, Jun 21
63 °FClear.8 mph73%29.89 "Hg10 mi
10:30 pm63 °FClear.8 mph73%29.89 "Hg10 mi
10:00 pm64 °FClear.8 mph68%29.89 "Hg10 mi
9:30 pm66 °FClear.8 mph64%29.89 "Hg10 mi
9:00 pm66 °FClear.8 mph64%29.89 "Hg10 mi
8:30 pm68 °FSunny.10 mph60%29.89 "Hg10 mi
8:00 pm70 °FSunny.13 mph57%29.89 "Hg10 mi
7:30 pm72 °FSunny.15 mph53%29.89 "Hg10 mi
7:00 pm72 °FScattered clouds.17 mph53%29.92 "HgN/A
6:30 pm73 °FSunny.20 mph50%29.92 "Hg10 mi
6:00 pm73 °FSunny.20 mph50%29.89 "Hg10 mi
5:30 pm73 °FSunny.17 mph50%29.92 "Hg10 mi
5:00 pm73 °FSunny.20 mph47%29.92 "Hg10 mi
4:30 pm72 °FSunny.22 mph50%29.92 "Hg10 mi
4:00 pm75 °FSunny.20 mph47%29.92 "Hg10 mi
Weather by CustomWeather, © 2024

See weather overview